Time;durP1;ratioP1;P1;durP2;ratioP2;P2;SDS_P1;SDS_P2;PMS_P1;PMS_P2;Temp;Humidity;BMP_temperature;BMP_pressure;BME280_temperature;BME280_humidity;BME280_pressure;Samples;Min_cycle;Max_cycle;Signal;HPM_P1;HPM_P2
2022/10/11 00:01:37;;;;;;;;;;;;;;;6.00;98.90;98035.40;108122;1265;58912;-75
2022/10/11 00:04:06;;;;;;;16.70;12.60;;;;;;;5.98;99.03;98030.66;108070;1266;58888;-75
2022/10/11 00:06:37;;;;;;;22.40;14.20;;;;;;;6.00;98.97;98025.20;107890;1265;70498;-75
2022/10/11 00:09:07;;;;;;;22.80;15.50;;;;;;;6.00;98.27;98019.48;108067;1266;69600;-75
2022/10/11 00:11:37;;;;;;;19.70;12.60;;;;;;;5.99;98.21;98016.42;107983;1266;68302;-75
2022/10/11 00:14:09;;;;;;;20.10;14.40;;;;;;;6.00;98.31;98017.58;108070;1266;58872;-75
2022/10/11 00:16:43;;;;;;;23.60;16.10;;;;;;;6.03;99.16;98018.84;108063;1260;59011;-75
2022/10/11 00:19:13;;;;;;;21.50;14.10;;;;;;;6.06;99.05;98015.25;108123;1265;71183;-75
2022/10/11 00:21:43;;;;;;;18.20;12.20;;;;;;;6.09;98.86;98013.88;108210;1262;69192;-75
2022/10/11 00:24:14;;;;;;;19.80;13.30;;;;;;;6.10;98.64;98018.33;107966;1266;69219;-75
2022/10/11 00:26:44;;;;;;;18.20;11.90;;;;;;;6.11;98.08;98018.30;108028;1266;58869;-76
2022/10/11 00:29:15;;;;;;;15.00;10.80;;;;;;;6.11;97.84;98019.86;107720;1262;58812;-76
2022/10/11 00:31:45;;;;;;;16.00;10.40;;;;;;;6.11;97.72;98020.70;108159;1262;70472;-74
2022/10/11 00:34:16;;;;;;;17.70;13.80;;;;;;;6.12;97.90;98019.95;108196;1260;69219;-75
2022/10/11 00:36:47;;;;;;;15.50;11.10;;;;;;;6.13;97.57;98021.66;108120;1266;68450;-76
2022/10/11 00:39:17;;;;;;;16.40;12.20;;;;;;;6.13;96.82;98015.79;108117;1265;58972;-75
2022/10/11 00:41:49;;;;;;;15.80;11.80;;;;;;;6.13;97.10;98013.88;108071;1265;58902;-75
2022/10/11 00:44:25;;;;;;;16.80;11.90;;;;;;;6.14;97.42;98012.44;108110;1262;70413;-75
2022/10/11 00:47:07;;;;;;;16.80;12.10;;;;;;;6.14;98.26;98014.54;108039;1263;69231;-75
2022/10/11 00:49:45;;;;;;;19.40;11.70;;;;;;;6.16;97.67;98012.39;107999;1265;69120;-75
2022/10/11 00:52:33;;;;;;;15.60;11.20;;;;;;;6.18;97.58;98011.23;107751;1262;58918;-76
2022/10/11 00:55:11;;;;;;;15.60;11.40;;;;;;;6.20;97.85;98009.27;108194;1266;58833;-76
2022/10/11 00:57:46;;;;;;;15.20;11.80;;;;;;;6.21;97.27;98007.33;107979;1266;69735;-75
2022/10/11 01:00:18;;;;;;;20.80;14.50;;;;;;;6.23;96.86;98004.97;108215;1265;69404;-75
2022/10/11 01:02:50;;;;;;;15.00;11.60;;;;;;;6.24;96.92;97999.02;108067;1266;69630;-76
2022/10/11 01:05:20;;;;;;;18.60;12.30;;;;;;;6.25;96.77;97998.98;108051;1266;58932;-76
2022/10/11 01:07:59;;;;;;;15.30;11.00;;;;;;;6.24;96.32;98001.09;108169;1264;58960;-76
2022/10/11 01:10:31;;;;;;;12.50;10.00;;;;;;;6.24;96.87;98001.27;108023;1262;70778;-75
2022/10/11 01:13:35;;;;;;;18.00;12.10;;;;;;;6.23;96.17;97998.02;108334;1262;68413;-76
2022/10/11 01:16:14;;;;;;;22.60;15.80;;;;;;;6.22;97.51;97993.59;109582;1261;68459;-75
2022/10/11 01:19:11;;;;;;;20.80;15.70;;;;;;;6.22;97.13;97989.59;107716;1266;58956;-75
2022/10/11 01:21:50;;;;;;;22.20;16.50;;;;;;;6.21;97.11;97987.05;108186;1266;58915;-75
2022/10/11 01:24:56;;;;;;;22.50;15.80;;;;;;;6.19;96.35;97986.43;108133;1264;70623;-76
2022/10/11 01:27:30;;;;;;;16.80;12.10;;;;;;;6.19;97.45;97986.98;108169;1266;69135;-76
2022/10/11 01:30:22;;;;;;;20.10;12.80;;;;;;;6.16;96.76;97989.55;107950;1266;69301;-76
2022/10/11 01:33:13;;;;;;;16.60;11.60;;;;;;;6.13;97.06;97988.77;108092;1265;58953;-76
2022/10/11 01:36:28;;;;;;;17.30;11.60;;;;;;;6.10;97.17;97985.98;108208;1261;58894;-76
2022/10/11 01:39:15;;;;;;;17.80;12.70;;;;;;;6.07;97.09;97985.63;108143;1260;69631;-76
2022/10/11 01:41:50;;;;;;;15.60;10.70;;;;;;;6.04;97.00;97989.20;108095;1266;69015;-76
2022/10/11 01:44:24;;;;;;;13.50;10.30;;;;;;;6.01;97.16;97988.13;108031;1262;69305;-76
2022/10/11 01:46:53;;;;;;;19.10;12.70;;;;;;;5.98;96.76;97987.23;108131;1266;58885;-76
2022/10/11 01:49:23;;;;;;;19.30;14.70;;;;;;;5.91;95.84;97982.48;108100;1262;58894;-76
2022/10/11 01:51:54;;;;;;;19.70;14.80;;;;;;;5.85;96.12;97977.92;108118;1265;70438;-76
2022/10/11 01:54:31;;;;;;;16.10;12.20;;;;;;;5.80;95.71;97979.38;108182;1264;69041;-76
2022/10/11 01:57:58;;;;;;;20.00;14.30;;;;;;;5.76;95.28;97978.50;108108;1266;68445;-76
2022/10/11 02:00:40;;;;;;;16.80;12.30;;;;;;;5.71;96.51;97977.02;108134;1263;58956;-76
2022/10/11 02:03:32;;;;;;;17.50;11.20;;;;;;;5.67;94.54;97975.95;108115;1263;58841;-77
2022/10/11 02:06:07;;;;;;;19.40;11.60;;;;;;;5.61;93.77;97979.64;108057;1266;70416;-76
2022/10/11 02:08:41;;;;;;;15.90;12.20;;;;;;;5.57;93.88;97973.44;108003;1266;69870;-77
2022/10/11 02:11:27;;;;;;;15.60;11.50;;;;;;;5.54;93.79;97975.13;108139;1264;68738;-76
2022/10/11 02:14:03;;;;;;;18.00;12.90;;;;;;;5.51;93.81;97976.30;107934;1266;58896;-77
2022/10/11 02:16:47;;;;;;;19.80;14.00;;;;;;;5.49;94.22;97977.45;107891;1258;58894;-76
2022/10/11 02:19:19;;;;;;;20.20;14.50;;;;;;;5.45;94.82;97974.31;107760;1263;71185;-76
2022/10/11 02:21:55;;;;;;;18.90;14.20;;;;;;;5.43;95.92;97973.91;107881;1262;69198;-77
2022/10/11 02:24:32;;;;;;;14.30;10.60;;;;;;;5.40;95.65;97974.52;108149;1266;68654;-76
2022/10/11 02:27:04;;;;;;;18.60;12.70;;;;;;;5.38;95.26;97976.02;108087;1260;58887;-77
2022/10/11 02:29:38;;;;;;;15.30;11.50;;;;;;;5.38;94.76;97973.77;108083;1266;58959;-76
2022/10/11 02:32:10;;;;;;;19.80;13.10;;;;;;;5.36;94.81;97971.41;108069;1266;70545;-76
2022/10/11 02:34:45;;;;;;;15.00;10.90;;;;;;;5.34;94.71;97970.63;107872;1266;68547;-76
2022/10/11 02:37:35;;;;;;;13.50;10.40;;;;;;;5.30;94.35;97971.30;107976;1266;69388;-76
2022/10/11 02:40:27;;;;;;;16.10;11.00;;;;;;;5.27;94.20;97968.17;108085;1262;58952;-76
2022/10/11 02:43:02;;;;;;;15.50;10.80;;;;;;;5.24;95.18;97968.16;107913;1262;58962;-77
2022/10/11 02:45:38;;;;;;;15.30;10.90;;;;;;;5.20;94.89;97970.89;107904;1266;70402;-77
2022/10/11 02:48:10;;;;;;;11.90;8.60;;;;;;;5.18;95.15;97971.52;107967;1266;69025;-76
2022/10/11 02:50:40;;;;;;;13.50;9.80;;;;;;;5.16;94.86;97971.61;108179;1266;69046;-76
2022/10/11 02:53:09;;;;;;;;;;;;;;;5.12;96.03;97970.20;108165;1264;58931;-77
2022/10/11 02:55:38;;;;;;;13.40;10.30;;;;;;;5.09;97.39;97970.15;108167;1266;58850;-76
2022/10/11 02:58:07;;;;;;;13.10;10.20;;;;;;;5.06;98.03;97972.69;108077;1266;70238;-76
2022/10/11 03:00:36;;;;;;;13.20;10.00;;;;;;;5.02;97.57;97972.35;107777;1262;68641;-77
2022/10/11 03:03:06;;;;;;;16.30;10.40;;;;;;;4.97;97.92;97976.32;108073;1262;69137;-77
2022/10/11 03:05:39;;;;;;;17.00;11.20;;;;;;;4.94;98.55;97977.52;108180;1260;58951;-76
2022/10/11 03:08:12;;;;;;;17.20;10.80;;;;;;;4.90;98.94;97976.64;108225;1266;58909;-76
2022/10/11 03:10:42;;;;;;;17.30;10.90;;;;;;;4.87;99.48;97974.35;108131;1265;70445;-77
2022/10/11 03:13:12;;;;;;;15.20;11.40;;;;;;;4.82;99.00;97976.59;108002;1266;68429;-76
2022/10/11 03:15:50;;;;;;;12.50;10.20;;;;;;;4.76;98.16;97977.36;107832;1266;69068;-76
2022/10/11 03:18:31;;;;;;;15.80;11.70;;;;;;;4.71;98.28;97978.78;107822;1266;58893;-77
2022/10/11 03:21:02;;;;;;;14.40;11.00;;;;;;;4.67;98.84;97977.56;108103;1264;58844;-77
2022/10/11 03:23:33;;;;;;;14.30;10.60;;;;;;;4.64;99.08;97976.13;108167;1263;69784;-77
2022/10/11 03:26:03;;;;;;;15.00;10.80;;;;;;;4.62;99.30;97973.80;107979;1263;69177;-77
2022/10/11 03:28:32;;;;;;;15.20;10.80;;;;;;;4.60;99.52;97974.04;108020;1266;69267;-77
2022/10/11 03:31:02;;;;;;;18.80;12.40;;;;;;;4.58;99.14;97969.98;108075;1262;59017;-77
2022/10/11 03:33:31;;;;;;;19.40;11.50;;;;;;;4.55;99.53;97970.08;108140;1252;58924;-75
2022/10/11 03:36:01;;;;;;;17.30;12.30;;;;;;;4.53;99.21;97966.04;108177;1257;69787;-77
2022/10/11 03:38:31;;;;;;;17.80;10.90;;;;;;;4.50;98.55;97967.02;108183;1266;68267;-78
2022/10/11 03:41:00;;;;;;;14.10;10.00;;;;;;;4.49;99.14;97964.81;108213;1266;69752;-76
2022/10/11 03:43:30;;;;;;;12.70;9.60;;;;;;;4.47;98.59;97962.82;108097;1260;58967;-77
2022/10/11 03:46:00;;;;;;;13.20;8.90;;;;;;;4.47;96.59;97964.02;108081;1262;58901;-76
2022/10/11 03:48:29;;;;;;;;;;;;;;;4.47;94.80;97963.34;108024;1266;71168;-76
2022/10/11 03:50:58;;;;;;;12.10;8.50;;;;;;;4.46;96.48;97963.21;108130;1264;69164;-76
2022/10/11 03:53:27;;;;;;;16.00;10.80;;;;;;;4.45;96.09;97963.27;107869;1266;69253;-77
2022/10/11 03:55:56;;;;;;;15.50;10.70;;;;;;;4.45;97.16;97966.20;107827;1261;58951;-77
2022/10/11 03:58:25;;;;;;;14.60;10.00;;;;;;;4.43;97.66;97966.09;108198;1266;58893;-77
2022/10/11 04:00:55;;;;;;;14.20;9.50;;;;;;;4.41;97.03;97966.70;108161;1266;70622;-76
2022/10/11 04:03:23;;;;;;;14.70;9.60;;;;;;;4.39;94.97;97968.49;107929;1262;68508;-77
2022/10/11 04:05:52;;;;;;;15.20;11.00;;;;;;;4.37;93.84;97964.92;108088;1266;69336;-77
2022/10/11 04:08:21;;;;;;;16.80;11.90;;;;;;;4.35;93.47;97963.28;108100;1266;59018;-77
2022/10/11 04:10:50;;;;;;;12.70;8.60;;;;;;;4.32;93.37;97963.56;108205;1262;58941;-77
2022/10/11 04:13:19;;;;;;;20.10;12.40;;;;;;;4.30;93.26;97965.73;108214;1263;70537;-77
2022/10/11 04:15:48;;;;;;;16.20;11.60;;;;;;;4.27;95.03;97963.77;107871;1257;68303;-76
2022/10/11 04:18:17;;;;;;;18.10;13.20;;;;;;;4.26;96.28;97960.20;108103;1262;69919;-77
2022/10/11 04:20:46;;;;;;;18.40;12.50;;;;;;;4.24;98.23;97957.85;108068;1266;58970;-76
2022/10/11 04:23:15;;;;;;;17.30;13.60;;;;;;;4.23;98.43;97959.98;108094;1266;59300;-76
2022/10/11 04:25:44;;;;;;;15.20;9.80;;;;;;;4.21;99.45;97961.23;108043;1262;71158;-77
2022/10/11 04:28:13;;;;;;;20.00;13.70;;;;;;;4.21;96.82;97957.63;107980;1266;69276;-77
2022/10/11 04:30:43;;;;;;;17.00;12.50;;;;;;;4.20;97.79;97958.69;108183;1265;68451;-76
2022/10/11 04:33:11;;;;;;;14.60;9.70;;;;;;;4.19;98.45;97955.09;107864;1266;58904;-76
2022/10/11 04:35:40;;;;;;;16.90;11.40;;;;;;;4.19;97.07;97956.00;107959;1260;58912;-78
2022/10/11 04:38:09;;;;;;;15.60;11.60;;;;;;;4.19;95.76;97959.45;108227;1260;70912;-75
2022/10/11 04:40:38;;;;;;;13.80;10.40;;;;;;;4.20;94.75;97962.67;108031;1266;68267;-78
2022/10/11 04:43:07;;;;;;;13.90;10.00;;;;;;;4.21;95.11;97968.84;108233;1266;69161;-76
2022/10/11 04:45:37;;;;;;;13.70;10.10;;;;;;;4.23;96.06;97966.71;107963;1266;58910;-72
2022/10/11 04:48:07;;;;;;;13.10;9.50;;;;;;;4.25;96.43;97967.32;107959;1262;58881;-73
2022/10/11 04:50:36;;;;;;;12.30;9.40;;;;;;;4.29;98.91;97968.00;108056;1264;69969;-74
2022/10/11 04:53:08;;;;;;;15.40;12.30;;;;;;;4.33;99.78;97969.77;108069;1266;70111;-74
2022/10/11 04:55:38;;;;;;;16.70;11.70;;;;;;;4.39;100.00;97974.04;108234;1266;68250;-75
2022/10/11 04:58:06;;;;;;;15.60;11.20;;;;;;;4.43;100.00;97977.12;108204;1266;58958;-75
2022/10/11 05:00:37;;;;;;;16.70;11.50;;;;;;;4.51;100.00;97979.42;108016;1266;58955;-74
2022/10/11 05:03:11;;;;;;;14.40;10.00;;;;;;;4.59;100.00;97987.03;107977;1266;69758;-75
2022/10/11 05:05:39;;;;;;;16.90;10.00;;;;;;;4.67;99.99;97988.44;107950;1266;68614;-75
2022/10/11 05:08:09;;;;;;;17.00;11.80;;;;;;;4.75;100.00;97987.95;108106;1262;68516;-74
2022/10/11 05:10:38;;;;;;;11.20;9.00;;;;;;;4.83;100.00;97987.80;108193;1266;58943;-74
2022/10/11 05:13:07;;;;;;;15.90;10.30;;;;;;;4.91;100.00;97987.85;107989;1266;58868;-75
2022/10/11 05:15:36;;;;;;;15.40;10.60;;;;;;;4.98;100.00;97990.96;108114;1257;70390;-74
2022/10/11 05:18:05;;;;;;;16.10;11.10;;;;;;;5.07;100.00;97986.65;108128;1259;68984;-74
2022/10/11 05:20:35;;;;;;;16.60;10.70;;;;;;;5.16;100.00;97989.20;108032;1263;68362;-74
2022/10/11 05:23:04;;;;;;;19.90;11.00;;;;;;;5.31;100.00;97990.33;108112;1267;58944;-75
2022/10/11 05:25:33;;;;;;;16.00;11.10;;;;;;;5.51;100.00;97996.52;108409;1266;58916;-74
2022/10/11 05:28:03;;;;;;;17.10;11.00;;;;;;;5.80;100.00;97994.92;107943;1264;71428;-74
2022/10/11 05:30:32;;;;;;;14.50;9.90;;;;;;;6.11;99.81;97990.80;108119;1266;69056;-74
2022/10/11 05:33:01;;;;;;;11.70;8.90;;;;;;;6.43;98.65;97995.35;108287;1262;69505;-74
2022/10/11 05:35:30;;;;;;;12.50;9.10;;;;;;;6.69;97.18;97996.59;107732;1257;414283;-73
2022/10/11 05:37:58;;;;;;;13.40;9.70;;;;;;;6.89;95.95;97998.92;108151;1261;58200;-74
2022/10/11 05:40:27;;;;;;;25.10;15.80;;;;;;;7.12;95.47;98004.04;107923;1266;71913;-75
2022/10/11 05:42:56;;;;;;;24.20;15.70;;;;;;;7.34;93.99;98006.90;108264;1266;69212;-74
2022/10/11 05:45:25;;;;;;;23.50;15.80;;;;;;;7.49;92.68;98011.02;108056;1266;68371;-75
2022/10/11 05:47:54;;;;;;;19.90;15.00;;;;;;;7.71;92.78;98012.96;108076;1262;58953;-74
2022/10/11 05:50:23;;;;;;;22.70;17.10;;;;;;;7.98;91.46;98013.70;108065;1263;58958;-74
2022/10/11 05:52:52;;;;;;;18.30;14.30;;;;;;;8.21;89.46;98008.27;107947;1264;70611;-74
2022/10/11 05:55:20;;;;;;;22.00;15.30;;;;;;;8.53;91.76;98008.47;108101;1262;69645;-74
2022/10/11 05:57:54;;;;;;;16.60;12.60;;;;;;;8.71;90.51;98010.95;108220;1266;69083;-74
2022/10/11 06:00:24;;;;;;;22.60;14.70;;;;;;;8.75;85.90;98014.22;108074;1257;58897;-75
2022/10/11 06:02:54;;;;;;;18.40;13.20;;;;;;;8.85;87.85;98016.75;108065;1265;58864;-74
2022/10/11 06:05:23;;;;;;;19.70;14.90;;;;;;;8.92;86.97;98019.65;108104;1266;69740;-74
2022/10/11 06:07:53;;;;;;;20.60;14.50;;;;;;;9.01;86.37;98017.45;107878;1266;68422;-75
2022/10/11 06:10:22;;;;;;;14.50;11.70;;;;;;;9.13;87.22;98013.63;108179;1266;70008;-75
2022/10/11 06:12:52;;;;;;;13.60;10.70;;;;;;;9.26;87.28;98013.09;108039;1260;59121;-77
2022/10/11 06:15:20;;;;;;;15.10;12.10;;;;;;;9.36;86.97;98015.95;108027;1265;58843;-74
2022/10/11 06:17:51;;;;;;;21.90;15.60;;;;;;;9.40;84.90;98014.48;107997;1266;70582;-77
2022/10/11 06:20:20;;;;;;;22.80;18.00;;;;;;;9.48;84.84;98017.14;108254;1266;69675;-74
2022/10/11 06:22:48;;;;;;;19.20;17.00;;;;;;;9.67;84.42;98019.14;108132;1262;70050;-75
2022/10/11 06:25:17;;;;;;;22.40;17.50;;;;;;;9.98;83.91;98015.39;108138;1267;58912;-75
2022/10/11 06:27:46;;;;;;;24.00;18.50;;;;;;;10.25;82.70;98016.54;108121;1266;58931;-76
2022/10/11 06:30:15;;;;;;;19.70;15.50;;;;;;;10.61;82.81;98019.31;108024;1266;70830;-76
2022/10/11 06:32:44;;;;;;;17.80;14.20;;;;;;;10.88;80.73;98023.89;108210;1266;69027;-75
2022/10/11 06:35:13;;;;;;;17.70;12.90;;;;;;;11.16;79.20;98024.73;108062;1265;69148;-75
2022/10/11 06:37:42;;;;;;;19.00;12.40;;;;;;;11.69;78.50;98028.52;108156;1266;58881;-74
2022/10/11 06:40:11;;;;;;;18.00;12.40;;;;;;;12.15;75.52;98030.07;107841;1266;58915;-75
2022/10/11 06:42:40;;;;;;;17.10;11.30;;;;;;;12.59;75.87;98026.30;108021;1267;69950;-73
2022/10/11 06:45:09;;;;;;;19.70;15.50;;;;;;;12.62;70.36;98023.48;108201;1260;69223;-74
2022/10/11 06:47:38;;;;;;;18.50;13.30;;;;;;;12.65;70.55;98022.39;107911;1267;69291;-73
2022/10/11 06:50:07;;;;;;;19.80;13.70;;;;;;;12.61;71.71;98021.63;107990;1261;58890;-74
2022/10/11 06:52:36;;;;;;;18.60;12.00;;;;;;;12.59;72.14;98023.18;108124;1265;58954;-74
2022/10/11 06:55:05;;;;;;;17.30;12.70;;;;;;;12.62;71.98;98025.09;108030;1266;70703;-74
2022/10/11 06:57:35;;;;;;;16.10;12.70;;;;;;;12.53;72.53;98029.55;108056;1266;68030;-74
2022/10/11 07:00:05;;;;;;;18.40;12.60;;;;;;;12.35;73.11;98034.64;108322;1265;68564;-75
2022/10/11 07:02:40;;;;;;;16.30;13.10;;;;;;;12.20;73.63;98032.70;108089;1262;58964;-73
2022/10/11 07:05:09;;;;;;;16.30;12.50;;;;;;;12.11;73.94;98034.76;108361;1265;58903;-73
2022/10/11 07:07:38;;;;;;;15.10;10.80;;;;;;;12.02;75.01;98032.73;108117;1266;70840;-75
2022/10/11 07:10:08;;;;;;;16.00;11.80;;;;;;;12.01;76.56;98034.02;107992;1266;69883;-76
2022/10/11 07:12:36;;;;;;;20.40;12.10;;;;;;;12.14;75.88;98029.96;107982;1264;69300;-75
2022/10/11 07:15:06;;;;;;;12.50;10.80;;;;;;;12.36;75.35;98028.97;108195;1264;58952;-75
2022/10/11 07:17:34;;;;;;;14.90;11.60;;;;;;;12.70;74.36;98024.66;108294;1263;58957;-75
2022/10/11 07:20:05;;;;;;;14.30;11.30;;;;;;;13.16;71.59;98027.09;108131;1266;69815;-72
2022/10/11 07:22:34;;;;;;;13.60;10.40;;;;;;;13.54;69.97;98025.88;108095;1263;69199;-73
2022/10/11 07:25:04;;;;;;;12.80;9.30;;;;;;;13.59;69.63;98029.90;107976;1266;69365;-73
2022/10/11 07:27:32;;;;;;;14.70;10.30;;;;;;;13.70;69.61;98026.42;107889;1266;58856;-73
2022/10/11 07:30:01;;;;;;;13.20;9.70;;;;;;;13.84;67.89;98029.58;108064;1266;58887;-73
2022/10/11 07:32:30;;;;;;;14.50;10.00;;;;;;;13.94;68.48;98031.96;108000;1262;71279;-75
2022/10/11 07:34:59;;;;;;;10.20;8.30;;;;;;;14.00;67.32;98033.77;107829;1266;69127;-73
2022/10/11 07:37:28;;;;;;;11.90;10.00;;;;;;;13.96;66.19;98031.09;108140;1266;69948;-74
2022/10/11 07:39:57;;;;;;;10.70;9.00;;;;;;;14.03;65.22;98025.42;107975;1260;58958;-74
2022/10/11 07:42:26;;;;;;;12.10;8.80;;;;;;;14.12;65.63;98023.66;108175;1266;58848;-74
2022/10/11 07:44:55;;;;;;;9.60;8.20;;;;;;;14.38;65.84;98022.73;107976;1260;71236;-73
2022/10/11 07:47:23;;;;;;;9.90;8.00;;;;;;;14.58;64.66;98020.13;108133;1260;69562;-72
2022/10/11 07:49:53;;;;;;;10.60;8.30;;;;;;;14.64;63.79;98019.11;107925;1264;69359;-72
2022/10/11 07:52:26;;;;;;;11.70;8.40;;;;;;;14.70;62.69;98022.71;108116;1262;58947;-71
2022/10/11 07:54:55;;;;;;;9.50;8.30;;;;;;;14.90;63.56;98024.21;108005;1264;58960;-73
2022/10/11 07:57:24;;;;;;;11.90;7.80;;;;;;;15.00;62.15;98024.98;107977;1266;70615;-73
2022/10/11 07:59:53;;;;;;;8.70;7.80;;;;;;;14.91;62.04;98022.03;107947;1267;69655;-73
2022/10/11 08:02:22;;;;;;;12.90;7.60;;;;;;;14.90;61.96;98021.74;107992;1266;69158;-73
2022/10/11 08:04:51;;;;;;;11.20;7.60;;;;;;;15.02;62.37;98023.58;108148;1263;58878;-73
2022/10/11 08:07:24;;;;;;;10.50;7.70;;;;;;;15.14;60.54;98022.14;107775;1266;58891;-74
2022/10/11 08:09:53;;;;;;;8.90;7.60;;;;;;;15.21;60.61;98027.15;107645;1262;71100;-73
2022/10/11 08:12:21;;;;;;;10.00;7.90;;;;;;;15.26;60.70;98022.89;107839;1259;69359;-72
2022/10/11 08:14:57;;;;;;;13.40;9.10;;;;;;;15.45;61.01;98023.27;107924;1265;69375;-73
2022/10/11 08:17:30;;;;;;;10.10;8.60;;;;;;;15.42;60.12;98024.02;107806;1266;58859;-72
2022/10/11 08:19:58;;;;;;;9.50;7.50;;;;;;;15.22;60.73;98026.84;108126;1267;58895;-73
2022/10/11 08:22:27;;;;;;;10.50;8.20;;;;;;;15.34;60.12;98027.14;108259;1266;70566;-72
2022/10/11 08:24:56;;;;;;;9.50;8.00;;;;;;;15.39;59.73;98033.10;108150;1266;70079;-73
2022/10/11 08:27:25;;;;;;;10.00;8.80;;;;;;;15.55;60.19;98029.95;108078;1266;68509;-73
2022/10/11 08:29:54;;;;;;;9.50;7.80;;;;;;;15.73;58.86;98028.66;108190;1267;58981;-72
2022/10/11 08:32:22;;;;;;;9.70;8.30;;;;;;;16.37;57.22;98028.30;108184;1266;58867;-72
2022/10/11 08:34:51;;;;;;;9.50;8.50;;;;;;;16.95;55.93;98027.22;107997;1266;70648;-73
2022/10/11 08:37:20;;;;;;;10.00;7.90;;;;;;;17.67;53.35;98029.53;108257;1265;68455;-73
2022/10/11 08:39:49;;;;;;;8.90;7.30;;;;;;;18.20;51.16;98024.27;108002;1265;69420;-74
2022/10/11 08:42:34;;;;;;;9.80;7.50;;;;;;;18.39;49.47;98027.25;107947;1266;58890;-73
2022/10/11 08:45:08;;;;;;;7.40;6.70;;;;;;;18.66;49.01;98025.73;108090;1262;58943;-72
2022/10/11 08:47:43;;;;;;;7.70;6.90;;;;;;;19.11;47.25;98027.16;108272;1265;68675;-71
2022/10/11 08:50:18;;;;;;;10.40;6.70;;;;;;;19.36;46.52;98023.34;108052;1256;68280;-72
2022/10/11 08:52:52;;;;;;;10.60;6.80;;;;;;;19.42;46.17;98018.33;108219;1264;70030;-73
2022/10/11 08:55:31;;;;;;;8.60;6.80;;;;;;;20.24;45.87;98013.06;108046;1261;58838;-72
2022/10/11 08:58:00;;;;;;;7.30;6.20;;;;;;;20.54;44.70;98011.05;108045;1266;58847;-72
2022/10/11 09:00:32;;;;;;;7.60;6.60;;;;;;;20.68;44.71;98010.62;108047;1265;71147;-72
2022/10/11 09:03:20;;;;;;;10.60;6.80;;;;;;;20.82;43.65;98010.03;108128;1266;69825;-71
2022/10/11 09:06:19;;;;;;;7.70;6.40;;;;;;;21.31;42.29;98013.48;107960;1263;68515;-72
2022/10/11 09:09:04;;;;;;;6.20;5.60;;;;;;;21.57;40.16;98012.12;108054;1266;58877;-73
2022/10/11 09:11:46;;;;;;;8.40;7.00;;;;;;;22.10;39.13;98007.40;108072;1266;58946;-71
2022/10/11 09:14:30;;;;;;;7.30;6.30;;;;;;;22.58;39.57;98003.58;108101;1266;71227;-72
2022/10/11 09:17:24;;;;;;;7.50;6.00;;;;;;;23.51;37.93;98001.52;108192;1267;69338;-73
2022/10/11 09:20:02;;;;;;;8.10;6.00;;;;;;;23.54;36.56;98001.30;107853;1266;69403;-73
2022/10/11 09:22:47;;;;;;;7.10;6.50;;;;;;;23.25;37.71;97998.64;108244;1266;58892;-72
2022/10/11 09:25:51;;;;;;;9.10;6.20;;;;;;;23.71;36.02;98001.14;108017;1267;58921;-73
2022/10/11 09:28:45;;;;;;;7.30;6.10;;;;;;;24.04;36.08;98001.47;108170;1266;70170;-71
2022/10/11 09:31:15;;;;;;;7.90;6.80;;;;;;;23.27;37.69;97999.27;108023;1265;68911;-72
2022/10/11 09:33:48;;;;;;;6.80;6.10;;;;;;;23.91;35.66;98001.98;107867;1266;70807;-72
2022/10/11 09:36:35;;;;;;;8.30;7.20;;;;;;;22.73;37.03;98000.14;108094;1266;58937;-71
2022/10/11 09:39:47;;;;;;;6.60;5.90;;;;;;;22.31;38.47;97997.59;107941;1268;58920;-71
2022/10/11 09:42:16;;;;;;;8.10;6.50;;;;;;;22.14;39.20;98000.61;107975;1265;71258;-71
2022/10/11 09:44:53;;;;;;;6.70;6.00;;;;;;;22.77;38.69;97998.41;108220;1265;69762;-71
2022/10/11 09:47:27;;;;;;;7.60;6.80;;;;;;;23.65;37.80;98000.28;108024;1262;68278;-71
2022/10/11 09:50:00;;;;;;;8.30;6.90;;;;;;;24.18;36.80;97997.48;108187;1266;58902;-71
2022/10/11 09:52:29;;;;;;;6.20;5.60;;;;;;;23.76;36.29;97991.94;108149;1263;58954;-72
2022/10/11 09:55:00;;;;;;;9.00;7.20;;;;;;;23.36;37.50;97988.37;108029;1266;69597;-71
2022/10/11 09:57:36;;;;;;;7.70;6.00;;;;;;;23.28;37.10;97986.21;108252;1264;69775;-73
2022/10/11 10:00:26;;;;;;;8.20;7.00;;;;;;;22.03;39.34;97991.08;108267;1257;69941;-72
2022/10/11 10:03:00;;;;;;;8.60;7.40;;;;;;;21.79;39.51;97987.02;108202;1266;58905;-71
2022/10/11 10:05:35;;;;;;;7.50;6.00;;;;;;;20.93;41.63;97986.21;108139;1267;59281;-73
2022/10/11 10:08:21;;;;;;;9.10;7.20;;;;;;;20.99;41.11;97982.36;108293;1262;71302;-70
2022/10/11 10:11:03;;;;;;;8.70;7.10;;;;;;;19.73;43.96;97986.02;108042;1261;69173;-71
2022/10/11 10:13:44;;;;;;;11.20;9.40;;;;;;;19.36;45.77;97990.58;108265;1260;69835;-71
2022/10/11 10:16:28;;;;;;;14.10;10.60;;;;;;;19.40;45.68;97986.71;108231;1266;58947;-71
2022/10/11 10:19:00;;;;;;;11.30;9.10;;;;;;;19.01;47.55;97980.91;107918;1271;58986;-71
2022/10/11 10:21:42;;;;;;;9.80;8.80;;;;;;;18.97;47.31;97981.08;108397;1264;70579;-70
2022/10/11 10:24:35;;;;;;;12.00;9.50;;;;;;;18.55;48.74;97981.60;108174;1266;69500;-71
2022/10/11 10:27:09;;;;;;;12.00;10.50;;;;;;;18.28;49.55;97980.49;108006;1265;69977;-70
2022/10/11 10:29:39;;;;;;;14.00;9.50;;;;;;;18.02;50.02;97982.08;108337;1266;58899;-70
2022/10/11 10:32:12;;;;;;;13.90;11.00;;;;;;;17.67;50.96;97983.56;108099;1267;58956;-71
2022/10/11 10:35:01;;;;;;;15.20;11.10;;;;;;;17.12;52.54;97981.35;108120;1260;70991;-71
2022/10/11 10:38:05;;;;;;;14.80;11.10;;;;;;;16.99;53.42;97978.64;108056;1264;69026;-71
2022/10/11 10:40:40;;;;;;;16.60;12.00;;;;;;;16.59;53.94;97972.52;108125;1266;69774;-72
2022/10/11 10:43:14;;;;;;;15.70;10.90;;;;;;;16.35;55.25;97969.87;107908;1270;58935;-70
2022/10/11 10:46:07;;;;;;;14.20;10.10;;;;;;;16.36;55.34;97967.54;107949;1266;58876;-71
2022/10/11 10:49:13;;;;;;;15.90;10.40;;;;;;;16.39;55.72;97970.08;108050;1267;70596;-71
2022/10/11 10:52:27;;;;;;;19.10;13.00;;;;;;;16.48;55.28;97968.27;107901;1267;69644;-71
2022/10/11 10:55:06;;;;;;;16.40;12.80;;;;;;;16.07;56.81;97969.86;107998;1267;69941;-71
2022/10/11 10:57:37;;;;;;;19.20;13.60;;;;;;;16.11;57.00;97972.48;108215;1258;58946;-71
2022/10/11 11:00:12;;;;;;;18.90;13.40;;;;;;;15.90;56.79;97969.36;108068;1267;58922;-71
2022/10/11 11:02:53;;;;;;;16.80;12.20;;;;;;;15.87;57.57;97971.41;107696;1266;70848;-71
2022/10/11 11:05:53;;;;;;;17.00;12.20;;;;;;;15.82;57.55;97973.56;107973;1268;69179;-70
2022/10/11 11:08:50;;;;;;;16.30;13.50;;;;;;;15.82;57.30;97972.70;107963;1262;68998;-71
2022/10/11 11:11:42;;;;;;;15.80;11.30;;;;;;;16.10;56.44;97970.31;107807;1273;58938;-72
2022/10/11 11:15:01;;;;;;;16.10;11.70;;;;;;;16.40;56.70;97969.48;108053;1267;58847;-70
2022/10/11 11:17:40;;;;;;;16.20;11.30;;;;;;;16.54;55.78;97967.48;107548;1270;71104;-72
2022/10/11 11:20:46;;;;;;;14.20;10.20;;;;;;;16.54;55.75;97965.59;107975;1270;69122;-71
2022/10/11 11:23:33;;;;;;;12.90;10.10;;;;;;;16.67;54.97;97965.48;108061;1260;68380;-70
2022/10/11 11:26:01;;;;;;;14.10;10.70;;;;;;;16.81;54.60;97967.23;108043;1267;58885;-71
2022/10/11 11:28:37;;;;;;;14.60;11.10;;;;;;;16.60;54.93;97963.64;108114;1260;58905;-71
2022/10/11 11:31:39;;;;;;;13.50;10.30;;;;;;;16.49;55.49;97959.71;107995;1260;70627;-71
2022/10/11 11:34:23;;;;;;;11.40;9.50;;;;;;;16.97;54.41;97966.75;108222;1266;69833;-71
2022/10/11 11:36:55;;;;;;;10.00;7.80;;;;;;;17.45;53.80;97966.01;108027;1266;69622;-71
2022/10/11 11:39:35;;;;;;;15.10;11.60;;;;;;;17.77;52.86;97962.60;108088;1268;58856;-70
2022/10/11 11:42:07;;;;;;;;;;;;;;;17.93;52.42;97957.15;108024;1267;58912;-71
2022/10/11 11:44:45;;;;;;;10.30;8.20;;;;;;;17.88;50.72;97954.15;108204;1267;70439;-72
2022/10/11 11:47:32;;;;;;;9.40;7.50;;;;;;;17.97;50.64;97952.74;108121;1266;69802;-71
2022/10/11 11:50:25;;;;;;;10.50;9.20;;;;;;;18.07;51.11;97949.14;107916;1262;70160;-71
2022/10/11 11:53:03;;;;;;;9.90;8.70;;;;;;;18.07;51.84;97945.77;108199;1266;59362;-71
2022/10/11 11:55:42;;;;;;;11.70;9.50;;;;;;;18.18;51.57;97943.00;108139;1262;58896;-72